Fort Stewart, Georgia
Current Conditions -  °F | °C
As of 1:58 PM on Sunday 23 Nov 2014 (Local Time) from KLHW Reporting Station
Overcast Overcast  
Wind Chill: 70°   Ceiling: 400
Heat Index: 70°   Visibility: 10mi
Dew Point: 68°   Wind: 7mph
Humidity: 95%   Direction: 120°ESE
Pressure: 29.87"   Gusts: NA
Location:  31.87°N, 81.61°W
Report Text: KLHW 231858Z AUTO 12006KT 10SM OVC004 21/20 A2987 RMK AO2 SLP118 T02090201
Loading
Personal Weather Stations






























Interactive Weather Map New forecast layout! Learn more

10-Day Weather Forecast

Advertisements
Track Severe Weather on mobile